createdAt,value
2023-01-13T00:00:21.781Z,98806.78
2023-01-13T00:02:50.751Z,98841.03
2023-01-13T00:05:18.451Z,98860.72
2023-01-13T00:07:46.407Z,98885.50
2023-01-13T00:10:14.008Z,98911.34
2023-01-13T00:12:42.205Z,98928.59
2023-01-13T00:15:11.920Z,98957.59
2023-01-13T00:17:39.839Z,98966.00
2023-01-13T00:20:11.374Z,98978.19
2023-01-13T00:22:39.068Z,98987.41
2023-01-13T00:25:07.599Z,99002.81
2023-01-13T00:27:35.483Z,99010.00
2023-01-13T00:30:03.516Z,99021.22
2023-01-13T00:32:31.201Z,99017.00
2023-01-13T00:34:59.279Z,99024.19
2023-01-13T00:37:28.295Z,99024.81
2023-01-13T00:39:57.778Z,99032.00
2023-01-13T00:42:43.051Z,99032.00
2023-01-13T00:45:11.488Z,99023.84
2023-01-13T06:55:13.769Z,99033.84
2023-01-13T06:57:49.949Z,99074.56
2023-01-13T07:00:18.219Z,99073.38
2023-01-13T07:02:45.898Z,99104.34
2023-01-13T07:05:14.000Z,99095.13
2023-01-13T07:07:42.073Z,99100.91
2023-01-13T07:10:13.063Z,99131.69
2023-01-13T07:12:59.137Z,99127.91
2023-01-13T07:15:27.861Z,99134.91
2023-01-13T07:17:55.576Z,99132.47
2023-01-13T07:20:23.277Z,99152.47
2023-01-13T07:22:55.304Z,99166.06
2023-01-13T07:25:23.628Z,99171.66
2023-01-13T07:27:52.620Z,99170.47
2023-01-13T07:30:20.627Z,99174.84
2023-01-13T07:32:48.233Z,99168.47
2023-01-13T07:35:17.519Z,99152.69
2023-01-13T07:37:45.250Z,99160.50
2023-01-13T07:40:13.319Z,99158.69
2023-01-13T07:42:58.404Z,99144.88
2023-01-13T07:45:27.721Z,99145.28
2023-01-13T07:47:55.414Z,99148.28
2023-01-13T07:50:23.731Z,99147.47
2023-01-13T07:52:51.504Z,99144.09
2023-01-13T07:55:19.459Z,99133.91
2023-01-13T07:57:49.297Z,99122.69
2023-01-13T08:00:17.932Z,99106.53
2023-01-13T08:02:46.879Z,99114.53
2023-01-13T08:05:14.343Z,99108.53
2023-01-13T08:07:41.983Z,99111.31
2023-01-13T08:10:10.524Z,99108.31
2023-01-13T08:12:57.267Z,99113.50
2023-01-13T08:15:24.996Z,99102.34
2023-01-13T08:17:54.087Z,99099.91
2023-01-13T08:20:21.739Z,99086.16
2023-01-13T08:22:49.404Z,99085.75
2023-01-13T08:25:17.377Z,99079.34
2023-01-13T08:27:45.051Z,99083.31
2023-01-13T08:30:13.063Z,99052.78
2023-01-13T08:32:40.692Z,99060.38
2023-01-13T08:35:10.214Z,99050.19
2023-01-13T08:37:37.919Z,99045.41
2023-01-13T08:40:07.067Z,99043.03
2023-01-13T08:42:34.766Z,99045.00
2023-01-13T08:45:02.365Z,99051.03
2023-01-13T08:47:29.977Z,99025.25
2023-01-13T08:49:57.568Z,99039.81
2023-01-13T08:52:26.872Z,99024.47
2023-01-13T08:54:54.491Z,99049.22
2023-01-13T08:57:22.187Z,99042.63
2023-01-13T08:59:49.845Z,99051.41
2023-01-13T09:02:19.818Z,99064.41
2023-01-13T09:04:47.760Z,99050.81
2023-01-13T09:07:15.813Z,99055.00
2023-01-13T09:09:44.829Z,99071.59
2023-01-13T09:12:31.483Z,99079.59
2023-01-13T09:14:59.557Z,99055.00
2023-01-13T09:17:27.452Z,99087.56
2023-01-13T09:19:55.150Z,99080.78
2023-01-13T09:22:26.813Z,99103.34
2023-01-13T09:24:56.406Z,99105.94
2023-01-13T09:27:24.417Z,99092.75
2023-01-13T09:29:52.072Z,99111.31
2023-01-13T09:32:19.642Z,99108.53
2023-01-13T09:35:01.705Z,99108.53
2023-01-13T09:37:31.452Z,99112.94
2023-01-13T09:40:00.523Z,99112.31
2023-01-13T09:42:52.841Z,99116.94
2023-01-13T09:45:23.553Z,99117.50
2023-01-13T09:47:57.609Z,99100.56
2023-01-13T09:50:34.144Z,99131.50
2023-01-13T09:53:02.342Z,99131.91
2023-01-13T09:55:36.767Z,99131.31
2023-01-13T09:58:13.181Z,99143.28
2023-01-13T10:00:47.217Z,99148.09
2023-01-13T10:03:24.349Z,99153.69
2023-01-13T10:05:58.616Z,99154.88
2023-01-13T10:08:29.392Z,99159.88
2023-01-13T10:11:00.359Z,99150.28
2023-01-13T10:13:29.365Z,99165.25
2023-01-13T10:16:07.036Z,99152.06
2023-01-13T10:18:45.745Z,99176.06
2023-01-13T10:21:20.095Z,99192.03
2023-01-13T10:24:03.344Z,99198.25
2023-01-13T10:26:49.044Z,99218.03
2023-01-13T10:29:24.704Z,99222.03
2023-01-13T10:31:53.247Z,99245.00
2023-01-13T10:34:21.628Z,99249.63
2023-01-13T10:37:00.234Z,99267.03
2023-01-13T10:39:28.124Z,99285.22
2023-01-13T10:42:04.367Z,99303.63
2023-01-13T10:44:32.028Z,99322.03
2023-01-13T10:47:00.382Z,99327.41
2023-01-13T10:49:32.648Z,99352.81
2023-01-13T10:52:01.897Z,99355.84
2023-01-13T10:54:30.532Z,99363.22
2023-01-13T10:57:19.955Z,99361.63
2023-01-13T10:59:48.046Z,99384.47
2023-01-13T11:02:26.944Z,99381.44
2023-01-13T11:05:19.549Z,99377.66
2023-01-13T11:07:52.111Z,99380.84
2023-01-13T11:10:23.164Z,99389.66
2023-01-13T11:13:05.384Z,99391.06
2023-01-13T11:15:40.752Z,99393.06
2023-01-13T11:18:18.885Z,99404.69
2023-01-13T11:20:48.683Z,99402.69
2023-01-13T11:23:22.800Z,99407.28
2023-01-13T11:25:55.879Z,99404.69
2023-01-13T11:28:39.146Z,99417.31
2023-01-13T11:31:14.516Z,99421.69
2023-01-13T11:33:46.645Z,99430.31
2023-01-13T11:36:20.625Z,99451.50
2023-01-13T11:38:52.146Z,99452.31
2023-01-13T11:41:29.724Z,99461.91
2023-01-13T11:44:07.248Z,99451.72
2023-01-13T11:46:35.197Z,99455.91
2023-01-13T11:49:04.190Z,99466.13
2023-01-13T11:51:37.342Z,99460.50
2023-01-13T11:54:22.416Z,99467.50
2023-01-13T11:57:07.901Z,99398.59
2023-01-13T11:59:59.719Z,99476.91
2023-01-13T12:02:46.111Z,99484.53
2023-01-13T12:05:23.672Z,99465.31
2023-01-13T12:07:59.079Z,99475.53
2023-01-13T12:10:41.749Z,99487.72
2023-01-13T12:13:24.028Z,99485.34
2023-01-13T12:16:07.227Z,99497.75
2023-01-13T12:18:53.747Z,99507.94
2023-01-13T12:21:22.933Z,99517.19
2023-01-13T12:24:00.545Z,99529.38
2023-01-13T12:26:33.644Z,99523.75
2023-01-13T12:29:05.822Z,99562.41
2023-01-13T12:31:38.333Z,99589.81
2023-01-13T12:34:23.019Z,99581.44
2023-01-13T12:36:59.458Z,99584.22
2023-01-13T12:39:38.441Z,99596.06
2023-01-13T12:42:30.902Z,99579.41
2023-01-13T12:45:28.456Z,99595.25
2023-01-13T12:47:58.615Z,99588.25
2023-01-13T12:50:41.741Z,99580.81
2023-01-13T12:53:33.147Z,99598.06
2023-01-13T12:56:48.574Z,99606.06
2023-01-13T12:59:35.042Z,99619.09
2023-01-13T13:02:26.990Z,99625.72
2023-01-13T13:04:58.061Z,99633.47
2023-01-13T13:07:38.538Z,99651.69
2023-01-13T13:10:17.125Z,99640.91
2023-01-13T13:13:14.152Z,99651.56
2023-01-13T13:15:42.660Z,99668.34
2023-01-13T13:18:28.369Z,99676.78
2023-01-13T13:21:02.935Z,99675.97
2023-01-13T13:24:05.628Z,99677.81
2023-01-13T13:26:45.803Z,99682.22
2023-01-13T13:29:31.685Z,99672.16
2023-01-13T13:32:23.133Z,99686.81
2023-01-13T13:35:03.645Z,99680.19
2023-01-13T13:38:05.556Z,99686.00
2023-01-13T13:40:58.796Z,99699.41
2023-01-13T13:43:45.665Z,99689.38
2023-01-13T13:46:42.933Z,99697.78
2023-01-13T13:49:10.607Z,99694.94
2023-01-13T13:51:42.651Z,99718.44
2023-01-13T13:54:14.545Z,99711.63
2023-01-13T13:56:46.203Z,99724.63
2023-01-13T13:59:17.691Z,99729.22
2023-01-13T14:01:47.061Z,99724.38
2023-01-13T14:04:19.817Z,99726.41
2023-01-13T14:06:52.037Z,99734.78
2023-01-13T14:09:22.124Z,99745.00
2023-01-13T14:12:01.602Z,99738.44
2023-01-13T14:14:30.197Z,99762.19
2023-01-13T14:16:58.633Z,99760.00
2023-01-13T14:19:31.560Z,99754.78
2023-01-13T14:22:01.946Z,99755.78
2023-01-13T14:24:32.258Z,99774.81
2023-01-13T14:27:11.283Z,99775.38
2023-01-13T14:29:39.113Z,99769.59
2023-01-13T14:32:08.284Z,99777.97
2023-01-13T14:34:37.731Z,99779.91
2023-01-13T14:37:24.878Z,99750.66
2023-01-13T14:39:53.837Z,99740.78
2023-01-13T14:42:22.112Z,99724.56
2023-01-13T14:44:51.961Z,99710.91
2023-01-13T14:47:25.351Z,99683.78
2023-01-13T14:49:59.069Z,99701.59
2023-01-13T14:52:29.414Z,99704.66
2023-01-13T14:55:24.327Z,99704.34
2023-01-13T14:57:52.312Z,99738.16
2023-01-13T15:00:23.438Z,99736.59
2023-01-13T15:03:02.012Z,99761.44
2023-01-13T15:05:38.732Z,99768.81
2023-01-13T15:08:23.139Z,99766.63
2023-01-13T15:10:54.952Z,99775.72
2023-01-13T15:13:28.026Z,99789.28
2023-01-13T15:15:58.584Z,99747.63
2023-01-13T15:18:26.289Z,99812.50
2023-01-13T15:20:53.966Z,99809.03
2023-01-13T15:23:22.168Z,99827.50
2023-01-13T15:25:50.341Z,99841.50
2023-01-13T15:28:22.214Z,99855.00
2023-01-13T15:30:50.358Z,99849.81
2023-01-13T15:33:18.838Z,99834.75
2023-01-13T15:35:48.586Z,99843.19
2023-01-13T15:38:18.326Z,99827.38
2023-01-13T15:40:47.160Z,99812.66
2023-01-13T15:43:32.898Z,99802.63
2023-01-13T15:46:34.667Z,99780.84
2023-01-13T15:49:09.788Z,99790.63
2023-01-13T15:51:38.778Z,99778.38
2023-01-13T15:54:06.420Z,99807.91
2023-01-13T15:56:36.257Z,99820.31
2023-01-13T15:59:04.495Z,99827.38
2023-01-13T16:01:33.560Z,99836.63
2023-01-13T16:04:01.235Z,99850.03
2023-01-13T16:06:33.130Z,99854.88
2023-01-13T16:09:02.877Z,99854.81
2023-01-13T16:11:32.301Z,99840.09
2023-01-13T16:14:00.054Z,99846.94
2023-01-13T16:16:29.588Z,99866.13
2023-01-13T16:18:58.630Z,99866.75
2023-01-13T16:21:26.324Z,99880.38
2023-01-13T16:23:55.114Z,99889.97
2023-01-13T16:26:23.832Z,99891.78
2023-01-13T16:28:52.427Z,99895.72
2023-01-13T16:31:25.227Z,99890.81
2023-01-13T16:33:53.377Z,99886.38
2023-01-13T16:36:23.165Z,99886.97
2023-01-13T16:38:52.859Z,99886.13
2023-01-13T16:41:21.672Z,99919.25
2023-01-13T16:43:49.692Z,99912.09
2023-01-13T16:46:23.679Z,99888.28
2023-01-13T16:48:52.986Z,99902.91
2023-01-13T16:51:23.430Z,99883.03
2023-01-13T16:53:51.520Z,99885.00
2023-01-13T16:56:24.057Z,99877.41
2023-01-13T16:58:53.096Z,99870.16
2023-01-13T17:01:25.871Z,99889.34
2023-01-13T17:03:54.604Z,99886.09
2023-01-13T17:06:28.309Z,99891.38
2023-01-13T17:08:57.442Z,99893.72
2023-01-13T17:11:25.088Z,99877.06
2023-01-13T17:13:52.670Z,99894.44
2023-01-13T17:16:22.852Z,99893.38
2023-01-13T17:18:51.303Z,99892.13
2023-01-13T17:21:19.201Z,99905.47
2023-01-13T17:23:48.220Z,99904.38
2023-01-13T17:26:37.088Z,99914.69
2023-01-13T17:29:06.639Z,99918.25
2023-01-13T17:31:36.136Z,99931.69
2023-01-13T17:34:04.848Z,99946.38
2023-01-13T17:36:33.107Z,99955.78
2023-01-13T17:39:02.113Z,99958.47
2023-01-13T17:41:30.138Z,99954.72
2023-01-13T17:43:57.783Z,99965.63
2023-01-13T17:46:25.388Z,99954.94
2023-01-13T17:48:54.096Z,99953.00
2023-01-13T17:51:25.021Z,99905.06
2023-01-13T17:53:54.336Z,99945.03
2023-01-13T17:56:25.169Z,99940.13
2023-01-13T17:58:52.844Z,99933.94
2023-01-13T18:01:22.360Z,99937.53
2023-01-13T18:03:50.653Z,99938.88
2023-01-13T18:06:20.495Z,99940.31
2023-01-13T18:08:49.148Z,99949.31
2023-01-13T18:11:19.699Z,99944.75
2023-01-13T18:13:50.066Z,99948.34
2023-01-13T18:16:19.955Z,99960.16
2023-01-13T18:18:49.502Z,99935.09
2023-01-13T18:21:38.279Z,99951.50
2023-01-13T18:24:23.708Z,99966.19
2023-01-13T18:27:09.011Z,99976.09
2023-01-13T18:29:38.007Z,99976.38
2023-01-13T18:32:07.495Z,99977.66
2023-01-13T18:34:35.358Z,99981.75
2023-01-13T18:37:03.000Z,99993.03
2023-01-13T18:39:30.719Z,99997.00
2023-01-13T18:42:16.146Z,99996.44
2023-01-13T18:44:45.304Z,100016.81
2023-01-13T18:47:13.031Z,100010.34
2023-01-13T18:49:40.785Z,100022.97
2023-01-13T18:52:08.442Z,100022.00
2023-01-13T18:54:36.507Z,100020.28
2023-01-13T18:57:04.671Z,100031.38
2023-01-13T18:59:34.520Z,100020.38
2023-01-13T19:02:09.320Z,100045.47
2023-01-13T19:04:37.087Z,100041.78
2023-01-13T19:07:05.083Z,100038.81
2023-01-13T19:09:33.311Z,100050.56
2023-01-13T19:12:01.390Z,100052.00
2023-01-13T19:14:35.700Z,100050.31
2023-01-13T19:17:06.416Z,100052.44
2023-01-13T19:19:34.048Z,100061.59
2023-01-13T19:22:01.701Z,100056.38
2023-01-13T19:24:29.409Z,100079.59
2023-01-13T19:26:57.109Z,100065.28
2023-01-13T19:29:24.838Z,100083.81
2023-01-13T19:31:52.632Z,100088.84
2023-01-13T19:34:22.909Z,100082.38
2023-01-13T19:36:52.687Z,100076.81
2023-01-13T19:39:20.431Z,100081.69
2023-01-13T19:42:06.090Z,100065.91
2023-01-13T19:44:51.941Z,100076.94
2023-01-13T19:47:19.754Z,100086.25
2023-01-13T19:49:48.819Z,100087.75
2023-01-13T19:52:16.613Z,100086.06
2023-01-13T19:54:45.667Z,100088.09
2023-01-13T19:57:13.816Z,100104.72
2023-01-13T19:59:41.881Z,100125.38
2023-01-13T20:02:15.587Z,100105.31
2023-01-13T20:04:45.071Z,100111.84
2023-01-13T20:07:14.599Z,100118.22
2023-01-13T20:09:44.178Z,100112.19
2023-01-13T20:12:13.125Z,100127.47
2023-01-13T20:14:41.060Z,100113.75
2023-01-13T20:17:09.068Z,100104.94
2023-01-13T20:19:36.738Z,100109.28
2023-01-13T20:22:04.486Z,100097.78
2023-01-13T20:24:34.212Z,100095.19
2023-01-13T20:27:02.188Z,100078.25
2023-01-13T20:29:29.938Z,100087.13
2023-01-13T20:31:58.517Z,100085.75
2023-01-13T20:34:26.709Z,100108.59
2023-01-13T20:36:54.558Z,100110.84
2023-01-13T20:39:24.924Z,100111.94
2023-01-13T20:42:11.880Z,100120.34
2023-01-13T20:44:39.649Z,100117.75
2023-01-13T20:47:07.923Z,100123.13
2023-01-13T20:49:36.920Z,100121.75
2023-01-13T20:52:09.321Z,100123.03
2023-01-13T20:54:37.185Z,100118.72
2023-01-13T20:57:07.950Z,100114.59
2023-01-13T20:59:35.653Z,100134.38
2023-01-13T21:02:04.097Z,100138.38
2023-01-13T21:04:31.896Z,100143.28
2023-01-13T21:06:59.685Z,100160.28
2023-01-13T21:09:27.541Z,100155.00
2023-01-13T21:12:13.520Z,100164.91
2023-01-13T21:15:00.092Z,100169.25
2023-01-13T21:17:45.272Z,100174.88
2023-01-13T21:20:14.928Z,100180.78
2023-01-13T21:22:46.371Z,100181.59
2023-01-13T21:25:14.240Z,100173.81
2023-01-13T21:27:43.885Z,100168.63
2023-01-13T21:30:14.940Z,100182.34
2023-01-13T21:32:43.970Z,100165.94
2023-01-13T21:35:12.112Z,100174.31
2023-01-13T21:37:40.873Z,100146.69
2023-01-13T21:40:11.079Z,100194.50
2023-01-13T21:42:56.128Z,100195.28
2023-01-13T21:45:42.678Z,100201.88
2023-01-13T21:48:10.403Z,100215.41
2023-01-13T21:50:38.894Z,100231.03
2023-01-13T21:53:08.067Z,100235.44
2023-01-13T21:55:37.583Z,100231.53
2023-01-13T21:58:11.036Z,100247.44
2023-01-13T22:00:41.109Z,100263.03
2023-01-13T22:03:09.812Z,100254.22
2023-01-13T22:05:37.801Z,100280.38
2023-01-13T22:08:06.425Z,100280.03
2023-01-13T22:10:34.458Z,100289.16
2023-01-13T22:13:23.175Z,100294.81
2023-01-13T22:15:51.956Z,100299.06
2023-01-13T22:18:19.401Z,100306.19
2023-01-13T22:20:48.927Z,100278.69
2023-01-13T22:23:17.031Z,100316.59
2023-01-13T22:25:44.674Z,100319.84
2023-01-13T22:28:13.906Z,100319.84
2023-01-13T22:30:41.650Z,100311.06
2023-01-13T22:33:10.695Z,100318.22
2023-01-13T22:35:38.797Z,100318.00
2023-01-13T22:38:06.453Z,100307.72
2023-01-13T22:40:34.036Z,100320.97
2023-01-13T22:43:01.648Z,100320.50
2023-01-13T22:45:29.284Z,100336.25
2023-01-13T22:47:56.928Z,100335.22
2023-01-13T22:50:25.867Z,100339.97
2023-01-13T22:52:53.560Z,100341.28
2023-01-13T22:55:21.226Z,100331.56
2023-01-13T22:57:49.043Z,100350.13
2023-01-13T23:00:18.729Z,100349.16
2023-01-13T23:02:46.563Z,100360.53
2023-01-13T23:05:14.660Z,100360.03
2023-01-13T23:07:43.645Z,100368.44
2023-01-13T23:10:12.583Z,100369.88
2023-01-13T23:12:40.204Z,100368.59
2023-01-13T23:15:08.594Z,100382.31
2023-01-13T23:17:36.251Z,100367.25
2023-01-13T23:20:04.518Z,100372.81
2023-01-13T23:22:32.180Z,100365.41
2023-01-13T23:25:01.248Z,100367.28
2023-01-13T23:27:28.849Z,100361.97
2023-01-13T23:29:56.501Z,100365.25
2023-01-13T23:32:24.159Z,100368.97
2023-01-13T23:34:51.743Z,100384.25
2023-01-13T23:37:19.444Z,100383.44
2023-01-13T23:39:47.094Z,100381.53
2023-01-13T23:42:16.312Z,100368.72
2023-01-13T23:44:44.032Z,100394.16
2023-01-13T23:47:12.530Z,100391.25
2023-01-13T23:49:40.807Z,100389.63
2023-01-13T23:52:08.540Z,100393.25
2023-01-13T23:54:36.396Z,100415.75
2023-01-13T23:57:04.249Z,100406.56
2023-01-13T23:59:33.253Z,100425.19
